sensor_id;sensor_type;location;lat;lon;timestamp;P1;durP1;ratioP1;P2;durP2;ratioP2
24751;SDS011;27246;52.376;4.628;2023-10-08T00:03:54;11.13;;;5.97;;
24751;SDS011;27246;52.376;4.628;2023-10-08T00:09:00;20.58;;;6.00;;
24751;SDS011;27246;52.376;4.628;2023-10-08T00:14:03;10.95;;;5.05;;
24751;SDS011;27246;52.376;4.628;2023-10-08T00:19:08;13.60;;;6.15;;
24751;SDS011;27246;52.376;4.628;2023-10-08T00:24:10;12.07;;;6.57;;
24751;SDS011;27246;52.376;4.628;2023-10-08T00:29:15;16.23;;;6.10;;
24751;SDS011;27246;52.376;4.628;2023-10-08T00:34:23;20.00;;;6.57;;
24751;SDS011;27246;52.376;4.628;2023-10-08T00:39:26;18.85;;;7.43;;
24751;SDS011;27246;52.376;4.628;2023-10-08T00:44:28;20.55;;;7.70;;
24751;SDS011;27246;52.376;4.628;2023-10-08T00:49:37;16.83;;;6.28;;
24751;SDS011;27246;52.376;4.628;2023-10-08T00:54:40;16.80;;;6.22;;
24751;SDS011;27246;52.376;4.628;2023-10-08T01:00:02;19.58;;;7.03;;
24751;SDS011;27246;52.376;4.628;2023-10-08T01:05:32;17.15;;;7.35;;
24751;SDS011;27246;52.376;4.628;2023-10-08T01:10:44;16.92;;;6.45;;
24751;SDS011;27246;52.376;4.628;2023-10-08T01:15:48;17.23;;;7.50;;
24751;SDS011;27246;52.376;4.628;2023-10-08T01:20:53;17.08;;;6.78;;
24751;SDS011;27246;52.376;4.628;2023-10-08T01:25:55;20.15;;;7.82;;
24751;SDS011;27246;52.376;4.628;2023-10-08T01:31:12;21.95;;;7.75;;
24751;SDS011;27246;52.376;4.628;2023-10-08T01:36:14;14.98;;;7.25;;
24751;SDS011;27246;52.376;4.628;2023-10-08T01:41:16;22.25;;;6.93;;
24751;SDS011;27246;52.376;4.628;2023-10-08T01:46:31;21.42;;;7.93;;
24751;SDS011;27246;52.376;4.628;2023-10-08T01:51:33;15.63;;;7.07;;
24751;SDS011;27246;52.376;4.628;2023-10-08T01:56:40;21.63;;;6.45;;
24751;SDS011;27246;52.376;4.628;2023-10-08T02:01:44;18.77;;;6.18;;
24751;SDS011;27246;52.376;4.628;2023-10-08T02:06:47;19.05;;;7.03;;
24751;SDS011;27246;52.376;4.628;2023-10-08T02:11:49;18.67;;;7.13;;
24751;SDS011;27246;52.376;4.628;2023-10-08T02:16:55;15.13;;;6.75;;
24751;SDS011;27246;52.376;4.628;2023-10-08T02:21:58;20.38;;;7.05;;
24751;SDS011;27246;52.376;4.628;2023-10-08T02:27:00;15.30;;;6.88;;
24751;SDS011;27246;52.376;4.628;2023-10-08T02:32:01;21.25;;;6.80;;
24751;SDS011;27246;52.376;4.628;2023-10-08T02:37:04;18.95;;;7.38;;
24751;SDS011;27246;52.376;4.628;2023-10-08T02:42:07;26.20;;;7.78;;
24751;SDS011;27246;52.376;4.628;2023-10-08T02:47:12;19.33;;;6.93;;
24751;SDS011;27246;52.376;4.628;2023-10-08T02:52:15;17.90;;;7.18;;
24751;SDS011;27246;52.376;4.628;2023-10-08T02:57:17;19.50;;;7.25;;
24751;SDS011;27246;52.376;4.628;2023-10-08T03:02:19;18.33;;;6.85;;
24751;SDS011;27246;52.376;4.628;2023-10-08T03:07:22;21.13;;;8.25;;
24751;SDS011;27246;52.376;4.628;2023-10-08T03:12:25;15.68;;;6.22;;
24751;SDS011;27246;52.376;4.628;2023-10-08T03:17:28;12.32;;;3.70;;
24751;SDS011;27246;52.376;4.628;2023-10-08T03:22:31;10.77;;;3.50;;
24751;SDS011;27246;52.376;4.628;2023-10-08T03:27:35;14.25;;;4.78;;
24751;SDS011;27246;52.376;4.628;2023-10-08T03:32:43;7.18;;;4.03;;
24751;SDS011;27246;52.376;4.628;2023-10-08T03:38:00;12.85;;;4.60;;
24751;SDS011;27246;52.376;4.628;2023-10-08T03:43:20;15.73;;;4.18;;
24751;SDS011;27246;52.376;4.628;2023-10-08T03:48:35;8.68;;;3.80;;
24751;SDS011;27246;52.376;4.628;2023-10-08T03:53:38;15.60;;;4.32;;
24751;SDS011;27246;52.376;4.628;2023-10-08T03:58:59;9.43;;;4.57;;
24751;SDS011;27246;52.376;4.628;2023-10-08T04:04:02;8.07;;;3.13;;
24751;SDS011;27246;52.376;4.628;2023-10-08T04:09:05;9.13;;;3.20;;
24751;SDS011;27246;52.376;4.628;2023-10-08T04:19:18;6.25;;;2.67;;
24751;SDS011;27246;52.376;4.628;2023-10-08T04:24:25;5.22;;;3.60;;
24751;SDS011;27246;52.376;4.628;2023-10-08T04:29:35;6.80;;;3.92;;
24751;SDS011;27246;52.376;4.628;2023-10-08T04:34:40;2.60;;;2.20;;
24751;SDS011;27246;52.376;4.628;2023-10-08T04:39:47;4.88;;;1.67;;
24751;SDS011;27246;52.376;4.628;2023-10-08T04:44:56;3.05;;;1.67;;
24751;SDS011;27246;52.376;4.628;2023-10-08T04:50:00;1.33;;;1.10;;
24751;SDS011;27246;52.376;4.628;2023-10-08T04:55:06;6.68;;;1.65;;
24751;SDS011;27246;52.376;4.628;2023-10-08T05:00:14;1.80;;;0.73;;
24751;SDS011;27246;52.376;4.628;2023-10-08T05:05:17;2.30;;;0.85;;
24751;SDS011;27246;52.376;4.628;2023-10-08T05:10:19;2.67;;;1.27;;
24751;SDS011;27246;52.376;4.628;2023-10-08T05:15:21;2.75;;;1.13;;
24751;SDS011;27246;52.376;4.628;2023-10-08T05:20:24;1.98;;;1.40;;
24751;SDS011;27246;52.376;4.628;2023-10-08T05:25:44;3.53;;;1.63;;
24751;SDS011;27246;52.376;4.628;2023-10-08T05:31:06;3.72;;;1.58;;
24751;SDS011;27246;52.376;4.628;2023-10-08T05:36:17;2.47;;;1.60;;
24751;SDS011;27246;52.376;4.628;2023-10-08T05:41:20;5.32;;;2.20;;
24751;SDS011;27246;52.376;4.628;2023-10-08T05:46:53;3.63;;;2.10;;
24751;SDS011;27246;52.376;4.628;2023-10-08T05:51:55;3.88;;;2.22;;
24751;SDS011;27246;52.376;4.628;2023-10-08T06:02:11;3.83;;;2.92;;
24751;SDS011;27246;52.376;4.628;2023-10-08T06:07:32;6.22;;;2.13;;
24751;SDS011;27246;52.376;4.628;2023-10-08T06:12:49;4.40;;;2.25;;
24751;SDS011;27246;52.376;4.628;2023-10-08T06:18:03;1.85;;;1.20;;
24751;SDS011;27246;52.376;4.628;2023-10-08T06:23:06;3.58;;;1.98;;
24751;SDS011;27246;52.376;4.628;2023-10-08T06:28:09;1.65;;;1.20;;
24751;SDS011;27246;52.376;4.628;2023-10-08T06:33:11;1.90;;;1.10;;
24751;SDS011;27246;52.376;4.628;2023-10-08T06:38:13;1.65;;;1.02;;
24751;SDS011;27246;52.376;4.628;2023-10-08T06:43:16;1.25;;;1.00;;
24751;SDS011;27246;52.376;4.628;2023-10-08T06:48:23;1.25;;;0.80;;
24751;SDS011;27246;52.376;4.628;2023-10-08T06:53:26;1.98;;;0.90;;
24751;SDS011;27246;52.376;4.628;2023-10-08T06:58:31;1.20;;;1.00;;
24751;SDS011;27246;52.376;4.628;2023-10-08T07:03:33;2.08;;;1.15;;
24751;SDS011;27246;52.376;4.628;2023-10-08T07:08:37;2.58;;;1.63;;
24751;SDS011;27246;52.376;4.628;2023-10-08T07:13:39;1.85;;;1.10;;
24751;SDS011;27246;52.376;4.628;2023-10-08T07:18:43;1.88;;;0.60;;
24751;SDS011;27246;52.376;4.628;2023-10-08T07:23:56;1.35;;;0.70;;
24751;SDS011;27246;52.376;4.628;2023-10-08T07:28:59;4.28;;;0.70;;
24751;SDS011;27246;52.376;4.628;2023-10-08T07:34:02;1.70;;;0.45;;
24751;SDS011;27246;52.376;4.628;2023-10-08T07:39:30;1.08;;;0.40;;
24751;SDS011;27246;52.376;4.628;2023-10-08T07:44:32;0.98;;;0.82;;
24751;SDS011;27246;52.376;4.628;2023-10-08T07:49:38;1.63;;;0.77;;
24751;SDS011;27246;52.376;4.628;2023-10-08T07:54:40;1.13;;;0.40;;
24751;SDS011;27246;52.376;4.628;2023-10-08T07:59:42;2.22;;;0.52;;
24751;SDS011;27246;52.376;4.628;2023-10-08T08:04:53;2.50;;;0.85;;
24751;SDS011;27246;52.376;4.628;2023-10-08T08:09:55;1.35;;;0.50;;
24751;SDS011;27246;52.376;4.628;2023-10-08T08:15:00;1.88;;;0.65;;
24751;SDS011;27246;52.376;4.628;2023-10-08T08:20:15;2.55;;;0.52;;
24751;SDS011;27246;52.376;4.628;2023-10-08T08:25:19;1.92;;;0.73;;
24751;SDS011;27246;52.376;4.628;2023-10-08T08:30:44;1.52;;;0.65;;
24751;SDS011;27246;52.376;4.628;2023-10-08T08:35:59;0.60;;;0.40;;
24751;SDS011;27246;52.376;4.628;2023-10-08T08:41:02;1.55;;;0.60;;
24751;SDS011;27246;52.376;4.628;2023-10-08T08:46:09;0.93;;;0.43;;
24751;SDS011;27246;52.376;4.628;2023-10-08T08:51:14;0.32;;;0.30;;
24751;SDS011;27246;52.376;4.628;2023-10-08T08:56:15;1.05;;;0.40;;
24751;SDS011;27246;52.376;4.628;2023-10-08T09:01:17;2.83;;;0.50;;
24751;SDS011;27246;52.376;4.628;2023-10-08T09:06:21;2.25;;;0.65;;
24751;SDS011;27246;52.376;4.628;2023-10-08T09:11:23;1.05;;;0.50;;
24751;SDS011;27246;52.376;4.628;2023-10-08T09:16:27;1.35;;;0.70;;
24751;SDS011;27246;52.376;4.628;2023-10-08T09:21:29;1.85;;;0.65;;
24751;SDS011;27246;52.376;4.628;2023-10-08T09:26:31;0.88;;;0.55;;
24751;SDS011;27246;52.376;4.628;2023-10-08T09:31:33;0.90;;;0.70;;
24751;SDS011;27246;52.376;4.628;2023-10-08T09:36:37;2.30;;;0.30;;
24751;SDS011;27246;52.376;4.628;2023-10-08T09:41:42;0.85;;;0.40;;
24751;SDS011;27246;52.376;4.628;2023-10-08T09:46:43;1.73;;;0.60;;
24751;SDS011;27246;52.376;4.628;2023-10-08T09:51:49;1.27;;;0.65;;
24751;SDS011;27246;52.376;4.628;2023-10-08T09:56:54;0.68;;;0.40;;
24751;SDS011;27246;52.376;4.628;2023-10-08T10:01:59;1.25;;;0.88;;
24751;SDS011;27246;52.376;4.628;2023-10-08T10:07:11;0.40;;;0.40;;
24751;SDS011;27246;52.376;4.628;2023-10-08T10:12:20;1.42;;;0.40;;
24751;SDS011;27246;52.376;4.628;2023-10-08T10:17:27;0.77;;;0.40;;
24751;SDS011;27246;52.376;4.628;2023-10-08T10:22:45;1.70;;;0.50;;
24751;SDS011;27246;52.376;4.628;2023-10-08T10:33:00;0.98;;;0.52;;
24751;SDS011;27246;52.376;4.628;2023-10-08T10:38:03;1.52;;;0.60;;
24751;SDS011;27246;52.376;4.628;2023-10-08T10:43:07;2.17;;;0.70;;
24751;SDS011;27246;52.376;4.628;2023-10-08T10:48:17;0.55;;;0.40;;
24751;SDS011;27246;52.376;4.628;2023-10-08T10:53:22;0.80;;;0.70;;
24751;SDS011;27246;52.376;4.628;2023-10-08T10:58:28;0.63;;;0.60;;
24751;SDS011;27246;52.376;4.628;2023-10-08T11:03:39;1.67;;;0.75;;
24751;SDS011;27246;52.376;4.628;2023-10-08T11:08:44;1.60;;;0.90;;
24751;SDS011;27246;52.376;4.628;2023-10-08T11:13:48;1.15;;;0.90;;
24751;SDS011;27246;52.376;4.628;2023-10-08T11:18:55;3.08;;;1.00;;
24751;SDS011;27246;52.376;4.628;2023-10-08T11:24:02;2.63;;;1.27;;
24751;SDS011;27246;52.376;4.628;2023-10-08T11:29:10;3.25;;;1.25;;
24751;SDS011;27246;52.376;4.628;2023-10-08T11:34:19;2.40;;;1.00;;
24751;SDS011;27246;52.376;4.628;2023-10-08T11:39:25;2.08;;;1.65;;
24751;SDS011;27246;52.376;4.628;2023-10-08T11:44:32;4.07;;;1.42;;
24751;SDS011;27246;52.376;4.628;2023-10-08T11:49:39;2.72;;;1.30;;
24751;SDS011;27246;52.376;4.628;2023-10-08T11:54:49;4.22;;;1.50;;
24751;SDS011;27246;52.376;4.628;2023-10-08T11:59:55;3.15;;;1.70;;
24751;SDS011;27246;52.376;4.628;2023-10-08T12:04:59;3.05;;;1.80;;
24751;SDS011;27246;52.376;4.628;2023-10-08T12:10:01;3.20;;;2.00;;
24751;SDS011;27246;52.376;4.628;2023-10-08T12:15:04;6.25;;;2.08;;
24751;SDS011;27246;52.376;4.628;2023-10-08T12:20:09;2.35;;;1.20;;
24751;SDS011;27246;52.376;4.628;2023-10-08T12:25:25;4.45;;;2.13;;
24751;SDS011;27246;52.376;4.628;2023-10-08T12:30:27;4.18;;;2.00;;
24751;SDS011;27246;52.376;4.628;2023-10-08T12:35:32;2.40;;;1.95;;
24751;SDS011;27246;52.376;4.628;2023-10-08T12:40:35;3.17;;;2.10;;
24751;SDS011;27246;52.376;4.628;2023-10-08T12:45:49;4.65;;;2.55;;
24751;SDS011;27246;52.376;4.628;2023-10-08T12:50:55;3.15;;;2.25;;
24751;SDS011;27246;52.376;4.628;2023-10-08T12:56:00;5.47;;;2.90;;
24751;SDS011;27246;52.376;4.628;2023-10-08T13:01:07;6.35;;;2.45;;
24751;SDS011;27246;52.376;4.628;2023-10-08T13:06:11;6.63;;;3.03;;
24751;SDS011;27246;52.376;4.628;2023-10-08T13:11:30;5.28;;;2.33;;
24751;SDS011;27246;52.376;4.628;2023-10-08T13:16:35;3.95;;;2.40;;
24751;SDS011;27246;52.376;4.628;2023-10-08T13:21:39;5.85;;;3.05;;
24751;SDS011;27246;52.376;4.628;2023-10-08T13:26:41;4.47;;;3.50;;
24751;SDS011;27246;52.376;4.628;2023-10-08T13:31:43;8.52;;;3.58;;
24751;SDS011;27246;52.376;4.628;2023-10-08T13:36:47;6.55;;;3.35;;
24751;SDS011;27246;52.376;4.628;2023-10-08T13:41:51;4.18;;;3.40;;
24751;SDS011;27246;52.376;4.628;2023-10-08T13:46:55;8.32;;;3.25;;
24751;SDS011;27246;52.376;4.628;2023-10-08T13:51:59;7.40;;;3.85;;
24751;SDS011;27246;52.376;4.628;2023-10-08T13:57:01;10.00;;;4.35;;
24751;SDS011;27246;52.376;4.628;2023-10-08T14:02:03;8.18;;;4.85;;
24751;SDS011;27246;52.376;4.628;2023-10-08T14:07:16;7.75;;;4.72;;
24751;SDS011;27246;52.376;4.628;2023-10-08T14:12:25;8.30;;;5.10;;
24751;SDS011;27246;52.376;4.628;2023-10-08T14:17:28;11.30;;;5.45;;
24751;SDS011;27246;52.376;4.628;2023-10-08T14:22:45;12.10;;;7.82;;
24751;SDS011;27246;52.376;4.628;2023-10-08T14:27:49;8.25;;;5.97;;
24751;SDS011;27246;52.376;4.628;2023-10-08T14:32:54;8.27;;;4.53;;
24751;SDS011;27246;52.376;4.628;2023-10-08T14:37:59;8.13;;;5.47;;
24751;SDS011;27246;52.376;4.628;2023-10-08T14:43:20;9.05;;;4.68;;
24751;SDS011;27246;52.376;4.628;2023-10-08T14:48:25;10.38;;;5.57;;
24751;SDS011;27246;52.376;4.628;2023-10-08T14:53:31;12.13;;;5.88;;
24751;SDS011;27246;52.376;4.628;2023-10-08T14:58:36;14.07;;;6.40;;
24751;SDS011;27246;52.376;4.628;2023-10-08T15:03:37;13.10;;;7.25;;
24751;SDS011;27246;52.376;4.628;2023-10-08T15:08:39;8.85;;;5.57;;
24751;SDS011;27246;52.376;4.628;2023-10-08T15:13:41;10.80;;;5.82;;
24751;SDS011;27246;52.376;4.628;2023-10-08T15:18:47;9.98;;;6.53;;
24751;SDS011;27246;52.376;4.628;2023-10-08T15:23:49;7.65;;;5.60;;
24751;SDS011;27246;52.376;4.628;2023-10-08T15:28:51;9.20;;;5.25;;
24751;SDS011;27246;52.376;4.628;2023-10-08T15:33:53;11.07;;;7.07;;
24751;SDS011;27246;52.376;4.628;2023-10-08T15:38:55;8.98;;;6.03;;
24751;SDS011;27246;52.376;4.628;2023-10-08T15:43:57;10.75;;;6.60;;
24751;SDS011;27246;52.376;4.628;2023-10-08T15:49:03;10.75;;;6.60;;
24751;SDS011;27246;52.376;4.628;2023-10-08T15:54:05;9.13;;;6.82;;
24751;SDS011;27246;52.376;4.628;2023-10-08T15:59:07;15.60;;;7.70;;
24751;SDS011;27246;52.376;4.628;2023-10-08T16:04:09;17.13;;;8.35;;
24751;SDS011;27246;52.376;4.628;2023-10-08T16:09:11;11.27;;;7.13;;
24751;SDS011;27246;52.376;4.628;2023-10-08T16:14:14;16.23;;;8.88;;
24751;SDS011;27246;52.376;4.628;2023-10-08T16:19:17;15.25;;;9.80;;
24751;SDS011;27246;52.376;4.628;2023-10-08T16:24:20;12.65;;;8.32;;
24751;SDS011;27246;52.376;4.628;2023-10-08T16:29:24;14.82;;;7.97;;
24751;SDS011;27246;52.376;4.628;2023-10-08T16:34:27;15.35;;;7.60;;
24751;SDS011;27246;52.376;4.628;2023-10-08T16:39:28;14.18;;;6.78;;
24751;SDS011;27246;52.376;4.628;2023-10-08T16:44:32;12.95;;;6.75;;
24751;SDS011;27246;52.376;4.628;2023-10-08T16:49:35;15.55;;;6.40;;
24751;SDS011;27246;52.376;4.628;2023-10-08T16:54:36;11.52;;;6.57;;
24751;SDS011;27246;52.376;4.628;2023-10-08T16:59:38;11.90;;;6.80;;
24751;SDS011;27246;52.376;4.628;2023-10-08T17:04:42;10.63;;;5.95;;
24751;SDS011;27246;52.376;4.628;2023-10-08T17:09:44;14.57;;;6.88;;
24751;SDS011;27246;52.376;4.628;2023-10-08T17:14:46;10.63;;;6.25;;
24751;SDS011;27246;52.376;4.628;2023-10-08T17:19:48;12.65;;;6.38;;
24751;SDS011;27246;52.376;4.628;2023-10-08T17:24:50;17.92;;;7.32;;
24751;SDS011;27246;52.376;4.628;2023-10-08T17:29:53;12.15;;;6.50;;
24751;SDS011;27246;52.376;4.628;2023-10-08T17:34:55;14.13;;;7.63;;
24751;SDS011;27246;52.376;4.628;2023-10-08T17:39:56;12.55;;;6.32;;
24751;SDS011;27246;52.376;4.628;2023-10-08T17:44:59;15.10;;;6.72;;
24751;SDS011;27246;52.376;4.628;2023-10-08T17:50:01;16.63;;;9.15;;
24751;SDS011;27246;52.376;4.628;2023-10-08T17:55:04;13.25;;;6.82;;
24751;SDS011;27246;52.376;4.628;2023-10-08T18:00:08;8.30;;;5.47;;
24751;SDS011;27246;52.376;4.628;2023-10-08T18:05:12;9.23;;;5.50;;
24751;SDS011;27246;52.376;4.628;2023-10-08T18:10:21;12.10;;;5.35;;
24751;SDS011;27246;52.376;4.628;2023-10-08T18:15:28;10.25;;;5.68;;
24751;SDS011;27246;52.376;4.628;2023-10-08T18:20:33;12.07;;;6.43;;
24751;SDS011;27246;52.376;4.628;2023-10-08T18:25:37;10.68;;;5.65;;
24751;SDS011;27246;52.376;4.628;2023-10-08T18:30:39;9.18;;;5.72;;
24751;SDS011;27246;52.376;4.628;2023-10-08T18:35:41;9.45;;;4.95;;
24751;SDS011;27246;52.376;4.628;2023-10-08T18:40:43;11.75;;;6.70;;
24751;SDS011;27246;52.376;4.628;2023-10-08T18:45:45;9.55;;;5.68;;
24751;SDS011;27246;52.376;4.628;2023-10-08T18:50:47;11.98;;;6.20;;
24751;SDS011;27246;52.376;4.628;2023-10-08T18:55:48;16.50;;;11.00;;
24751;SDS011;27246;52.376;4.628;2023-10-08T19:00:55;12.45;;;9.43;;
24751;SDS011;27246;52.376;4.628;2023-10-08T19:05:57;13.32;;;7.07;;
24751;SDS011;27246;52.376;4.628;2023-10-08T19:10:59;9.48;;;6.45;;
24751;SDS011;27246;52.376;4.628;2023-10-08T19:16:02;9.88;;;6.60;;
24751;SDS011;27246;52.376;4.628;2023-10-08T19:21:06;9.95;;;6.80;;
24751;SDS011;27246;52.376;4.628;2023-10-08T19:26:10;9.55;;;7.20;;
24751;SDS011;27246;52.376;4.628;2023-10-08T19:31:15;10.73;;;7.72;;
24751;SDS011;27246;52.376;4.628;2023-10-08T19:36:18;12.77;;;7.85;;
24751;SDS011;27246;52.376;4.628;2023-10-08T19:41:22;12.82;;;7.90;;
24751;SDS011;27246;52.376;4.628;2023-10-08T19:46:23;13.73;;;8.70;;
24751;SDS011;27246;52.376;4.628;2023-10-08T19:51:26;10.88;;;7.47;;
24751;SDS011;27246;52.376;4.628;2023-10-08T19:56:28;14.32;;;8.35;;
24751;SDS011;27246;52.376;4.628;2023-10-08T20:01:30;14.65;;;8.40;;
24751;SDS011;27246;52.376;4.628;2023-10-08T20:06:32;15.85;;;9.30;;
24751;SDS011;27246;52.376;4.628;2023-10-08T20:11:34;13.65;;;8.82;;
24751;SDS011;27246;52.376;4.628;2023-10-08T20:16:35;13.57;;;9.25;;
24751;SDS011;27246;52.376;4.628;2023-10-08T20:21:37;12.63;;;8.80;;
24751;SDS011;27246;52.376;4.628;2023-10-08T20:26:41;14.60;;;10.13;;
24751;SDS011;27246;52.376;4.628;2023-10-08T20:31:44;12.70;;;9.77;;
24751;SDS011;27246;52.376;4.628;2023-10-08T20:36:46;13.60;;;9.60;;
24751;SDS011;27246;52.376;4.628;2023-10-08T20:41:50;17.63;;;10.38;;
24751;SDS011;27246;52.376;4.628;2023-10-08T20:46:52;21.73;;;12.90;;
24751;SDS011;27246;52.376;4.628;2023-10-08T20:51:54;14.43;;;10.63;;
24751;SDS011;27246;52.376;4.628;2023-10-08T20:56:56;17.13;;;12.57;;
24751;SDS011;27246;52.376;4.628;2023-10-08T21:01:58;14.82;;;10.75;;
24751;SDS011;27246;52.376;4.628;2023-10-08T21:07:00;15.32;;;11.68;;
24751;SDS011;27246;52.376;4.628;2023-10-08T21:12:01;16.75;;;12.25;;
24751;SDS011;27246;52.376;4.628;2023-10-08T21:17:03;15.43;;;12.18;;
24751;SDS011;27246;52.376;4.628;2023-10-08T21:22:05;18.38;;;12.38;;
24751;SDS011;27246;52.376;4.628;2023-10-08T21:27:07;19.15;;;12.15;;
24751;SDS011;27246;52.376;4.628;2023-10-08T21:32:09;22.15;;;12.85;;
24751;SDS011;27246;52.376;4.628;2023-10-08T21:37:13;15.85;;;12.20;;
24751;SDS011;27246;52.376;4.628;2023-10-08T21:42:15;15.57;;;11.95;;
24751;SDS011;27246;52.376;4.628;2023-10-08T21:47:17;20.75;;;13.50;;
24751;SDS011;27246;52.376;4.628;2023-10-08T21:52:21;18.90;;;13.15;;
24751;SDS011;27246;52.376;4.628;2023-10-08T21:57:26;20.63;;;13.30;;
24751;SDS011;27246;52.376;4.628;2023-10-08T22:02:28;18.75;;;13.13;;
24751;SDS011;27246;52.376;4.628;2023-10-08T22:07:45;21.75;;;14.95;;
24751;SDS011;27246;52.376;4.628;2023-10-08T22:12:48;18.48;;;13.40;;
24751;SDS011;27246;52.376;4.628;2023-10-08T22:17:51;20.63;;;14.02;;
24751;SDS011;27246;52.376;4.628;2023-10-08T22:22:53;21.15;;;14.45;;
24751;SDS011;27246;52.376;4.628;2023-10-08T22:27:56;21.27;;;13.77;;
24751;SDS011;27246;52.376;4.628;2023-10-08T22:32:58;21.02;;;13.35;;
24751;SDS011;27246;52.376;4.628;2023-10-08T22:38:01;25.35;;;15.98;;
24751;SDS011;27246;52.376;4.628;2023-10-08T22:43:03;21.45;;;14.27;;
24751;SDS011;27246;52.376;4.628;2023-10-08T22:48:07;27.02;;;16.30;;
24751;SDS011;27246;52.376;4.628;2023-10-08T22:53:08;21.05;;;14.13;;
24751;SDS011;27246;52.376;4.628;2023-10-08T22:58:10;22.70;;;15.52;;
24751;SDS011;27246;52.376;4.628;2023-10-08T23:03:12;21.02;;;15.05;;
24751;SDS011;27246;52.376;4.628;2023-10-08T23:08:15;22.25;;;14.75;;
24751;SDS011;27246;52.376;4.628;2023-10-08T23:13:18;20.85;;;14.30;;
24751;SDS011;27246;52.376;4.628;2023-10-08T23:18:26;21.30;;;14.23;;
24751;SDS011;27246;52.376;4.628;2023-10-08T23:23:34;20.33;;;13.75;;
24751;SDS011;27246;52.376;4.628;2023-10-08T23:28:37;15.02;;;10.07;;
24751;SDS011;27246;52.376;4.628;2023-10-08T23:33:39;11.75;;;8.07;;
24751;SDS011;27246;52.376;4.628;2023-10-08T23:38:42;13.88;;;7.13;;
24751;SDS011;27246;52.376;4.628;2023-10-08T23:43:49;12.35;;;7.88;;
24751;SDS011;27246;52.376;4.628;2023-10-08T23:48:57;12.40;;;6.95;;
24751;SDS011;27246;52.376;4.628;2023-10-08T23:54:19;11.98;;;7.45;;
24751;SDS011;27246;52.376;4.628;2023-10-08T23:59:34;12.13;;;6.82;;
